Time;durP1;ratioP1;P1;durP2;ratioP2;P2;SDS_P1;SDS_P2;PMS_P1;PMS_P2;Temp;Humidity;BMP_temperature;BMP_pressure;BME280_temperature;BME280_humidity;BME280_pressure;Samples;Min_cycle;Max_cycle;Signal;HPM_P1;HPM_P2
2024/02/02 00:00:11;;;;;;;63.35;57.75;;;;;;;;;;4199568;28;20123;-58
2024/02/02 00:02:12;;;;;;;68.65;62.67;;;;;;;;;;4209927;28;20066;-57
2024/02/02 00:04:14;;;;;;;69.45;63.42;;;;;;;;;;4216295;28;20044;-58
2024/02/02 00:06:15;;;;;;;66.60;60.90;;;;;;;;;;4211841;28;20047;-58
2024/02/02 00:08:17;;;;;;;69.57;63.40;;;;;;;;;;4209632;28;20123;-58
2024/02/02 00:10:19;;;;;;;72.05;65.45;;;;;;;;;;4208443;28;20040;-58
2024/02/02 00:12:20;;;;;;;70.57;64.07;;;;;;;;;;4199359;28;20611;-58
2024/02/02 00:14:23;;;;;;;60.33;55.50;;;;;;;;;;4199593;28;20287;-58
2024/02/02 00:16:25;;;;;;;58.85;53.85;;;;;;;;;;4199321;28;20412;-58
2024/02/02 00:18:27;;;;;;;58.17;53.23;;;;;;;;;;4199326;28;20075;-56
2024/02/02 00:20:29;;;;;;;61.75;57.15;;;;;;;;;;4199502;28;20286;-58
2024/02/02 00:22:30;;;;;;;61.88;57.15;;;;;;;;;;4199252;28;20041;-58
2024/02/02 00:24:32;;;;;;;57.28;52.85;;;;;;;;;;4197867;28;20052;-57
2024/02/02 00:26:34;;;;;;;59.63;54.60;;;;;;;;;;4199048;28;20378;-57
2024/02/02 00:28:35;;;;;;;63.60;57.65;;;;;;;;;;4199083;28;20041;-58
2024/02/02 00:30:37;;;;;;;63.63;57.87;;;;;;;;;;4197784;28;20044;-57
2024/02/02 00:32:44;;;;;;;56.83;52.88;;;;;;;;;;4214889;28;20131;-57
2024/02/02 00:34:46;;;;;;;54.10;50.10;;;;;;;;;;4215655;28;20048;-57
2024/02/02 00:36:48;;;;;;;62.03;56.97;;;;;;;;;;4215742;28;20492;-58
2024/02/02 00:38:50;;;;;;;65.78;60.13;;;;;;;;;;4215806;28;20047;-58
2024/02/02 00:40:52;;;;;;;65.50;59.85;;;;;;;;;;4215505;28;20051;-58
2024/02/02 00:42:54;;;;;;;66.07;60.30;;;;;;;;;;4198752;28;20040;-57
2024/02/02 00:44:57;;;;;;;66.43;60.43;;;;;;;;;;4198712;28;20099;-57
2024/02/02 00:47:02;;;;;;;67.45;61.67;;;;;;;;;;4199055;28;20041;-58
2024/02/02 00:49:04;;;;;;;73.25;66.57;;;;;;;;;;4198798;28;20427;-58
2024/02/02 00:51:05;;;;;;;72.53;66.30;;;;;;;;;;4198792;28;20122;-58
2024/02/02 00:53:07;;;;;;;70.05;63.80;;;;;;;;;;4210950;28;20040;-57
2024/02/02 00:55:09;;;;;;;72.22;66.30;;;;;;;;;;4198858;28;20033;-59
2024/02/02 00:57:12;;;;;;;64.45;58.90;;;;;;;;;;4201033;28;20040;-56
2024/02/02 00:59:14;;;;;;;66.53;61.30;;;;;;;;;;4215399;28;20420;-58
2024/02/02 01:01:15;;;;;;;64.23;58.77;;;;;;;;;;4213044;28;20079;-58
2024/02/02 01:03:17;;;;;;;62.97;58.27;;;;;;;;;;4198784;28;20308;-57
2024/02/02 01:05:19;;;;;;;65.00;59.33;;;;;;;;;;4198978;28;20048;-57
2024/02/02 01:07:21;;;;;;;60.47;55.83;;;;;;;;;;4198399;28;20381;-57
2024/02/02 01:09:22;;;;;;;61.27;56.63;;;;;;;;;;4198514;28;20041;-57
2024/02/02 01:11:24;;;;;;;59.90;55.70;;;;;;;;;;4197246;28;20542;-58
2024/02/02 01:13:26;;;;;;;59.75;55.63;;;;;;;;;;4198441;28;20534;-56
2024/02/02 01:15:28;;;;;;;58.13;53.67;;;;;;;;;;4198560;28;20043;-57
2024/02/02 01:17:29;;;;;;;61.47;56.42;;;;;;;;;;4198303;28;20381;-57
2024/02/02 01:19:31;;;;;;;62.85;57.80;;;;;;;;;;4198207;28;20037;-57
2024/02/02 01:21:34;;;;;;;64.43;58.85;;;;;;;;;;4198286;28;20044;-58
2024/02/02 01:23:37;;;;;;;67.07;61.53;;;;;;;;;;4198483;28;20045;-56
2024/02/02 01:25:39;;;;;;;69.25;63.03;;;;;;;;;;4198264;28;20110;-57
2024/02/02 01:27:41;;;;;;;67.60;62.13;;;;;;;;;;4203740;28;20398;-56
2024/02/02 01:29:43;;;;;;;66.65;60.80;;;;;;;;;;4215180;28;20479;-56
2024/02/02 01:31:44;;;;;;;64.25;58.85;;;;;;;;;;4214919;28;20036;-57
2024/02/02 01:33:53;;;;;;;65.13;59.25;;;;;;;;;;4214852;28;20071;-57
2024/02/02 01:35:56;;;;;;;70.70;64.57;;;;;;;;;;4213599;28;20400;-57
2024/02/02 01:37:58;;;;;;;64.95;59.47;;;;;;;;;;4207556;28;20044;-57
2024/02/02 01:39:59;;;;;;;66.43;61.05;;;;;;;;;;4197742;28;20539;-57
2024/02/02 01:42:01;;;;;;;66.60;61.47;;;;;;;;;;4197867;28;20569;-57
2024/02/02 01:44:03;;;;;;;;;;;;;;;;;;4198661;28;20071;-57
2024/02/02 01:46:05;;;;;;;63.90;58.80;;;;;;;;;;4197848;28;19927;-57
2024/02/02 01:48:10;;;;;;;63.67;58.65;;;;;;;;;;4197741;28;20036;-57
2024/02/02 01:50:12;;;;;;;60.42;55.95;;;;;;;;;;4204528;28;20063;-56
2024/02/02 01:52:14;;;;;;;57.03;53.17;;;;;;;;;;4209925;28;20033;-57
2024/02/02 01:54:16;;;;;;;56.20;52.43;;;;;;;;;;4198053;28;20040;-57
2024/02/02 01:56:17;;;;;;;59.67;55.10;;;;;;;;;;4197097;28;20289;-57
2024/02/02 01:58:19;;;;;;;61.83;57.15;;;;;;;;;;4209402;28;20442;-56
2024/02/02 02:00:21;;;;;;;63.97;58.72;;;;;;;;;;4213339;28;20040;-58
2024/02/02 02:02:23;;;;;;;66.47;60.90;;;;;;;;;;4214211;28;20780;-58
2024/02/02 02:04:24;;;;;;;63.05;58.10;;;;;;;;;;4214335;28;20313;-58
2024/02/02 02:06:26;;;;;;;67.80;61.97;;;;;;;;;;4214352;28;20434;-57
2024/02/02 02:08:28;;;;;;;67.72;62.03;;;;;;;;;;4214353;28;20503;-58
2024/02/02 02:10:30;;;;;;;66.32;60.90;;;;;;;;;;4214231;28;20040;-58
2024/02/02 02:12:31;;;;;;;61.03;56.20;;;;;;;;;;4214301;28;20400;-58
2024/02/02 02:14:33;;;;;;;64.35;59.15;;;;;;;;;;4214489;28;20040;-56
2024/02/02 02:16:35;;;;;;;70.60;64.68;;;;;;;;;;4214517;28;20039;-57
2024/02/02 02:18:37;;;;;;;70.00;64.28;;;;;;;;;;4214175;28;20040;-56
2024/02/02 02:20:53;;;;;;;64.43;59.08;;;;;;;;;;4214124;28;20092;-57
2024/02/02 02:22:55;;;;;;;64.13;59.33;;;;;;;;;;4214281;28;20040;-56
2024/02/02 02:25:00;;;;;;;63.88;58.90;;;;;;;;;;4214012;28;20052;-57
2024/02/02 02:27:03;;;;;;;59.90;55.20;;;;;;;;;;4212845;28;20040;-57
2024/02/02 02:29:05;;;;;;;57.08;52.58;;;;;;;;;;4214131;28;20511;-57
2024/02/02 02:31:14;;;;;;;61.75;57.08;;;;;;;;;;4214141;28;20028;-57
2024/02/02 02:33:15;;;;;;;57.53;53.50;;;;;;;;;;4214225;28;20036;-58
2024/02/02 02:35:17;;;;;;;60.53;56.10;;;;;;;;;;4197727;28;20032;-56
2024/02/02 02:37:19;;;;;;;58.83;54.30;;;;;;;;;;4197277;28;20052;-58
2024/02/02 02:39:20;;;;;;;59.92;55.58;;;;;;;;;;4197028;28;20056;-56
2024/02/02 02:41:22;;;;;;;58.75;54.47;;;;;;;;;;4197520;28;20047;-57
2024/02/02 02:43:24;;;;;;;62.80;58.17;;;;;;;;;;4197553;28;20395;-57
2024/02/02 02:45:26;;;;;;;60.63;56.07;;;;;;;;;;4197553;28;20040;-57
2024/02/02 02:47:28;;;;;;;59.45;55.10;;;;;;;;;;4212066;28;20357;-57
2024/02/02 02:49:30;;;;;;;58.25;53.80;;;;;;;;;;4214015;28;20040;-56
2024/02/02 02:51:32;;;;;;;62.93;58.17;;;;;;;;;;4213919;28;20040;-57
2024/02/02 02:53:34;;;;;;;61.85;57.08;;;;;;;;;;4198359;28;20489;-57
2024/02/02 02:55:35;;;;;;;65.65;60.67;;;;;;;;;;4196966;28;20044;-57
2024/02/02 02:57:37;;;;;;;62.10;57.20;;;;;;;;;;4202978;28;20121;-56
2024/02/02 02:59:39;;;;;;;64.43;59.63;;;;;;;;;;4213595;28;20120;-57
2024/02/02 03:01:41;;;;;;;64.65;59.55;;;;;;;;;;4206900;28;20528;-57
2024/02/02 03:03:42;;;;;;;62.07;57.40;;;;;;;;;;4197198;28;20459;-57
2024/02/02 03:05:44;;;;;;;63.83;58.73;;;;;;;;;;4197299;28;20374;-57
2024/02/02 03:07:46;;;;;;;57.70;53.35;;;;;;;;;;4199156;28;20058;-57
2024/02/02 03:09:47;;;;;;;57.33;53.33;;;;;;;;;;4200400;28;20385;-58
2024/02/02 03:11:49;;;;;;;59.30;54.90;;;;;;;;;;4200692;28;20064;-57
2024/02/02 03:13:51;;;;;;;56.67;52.83;;;;;;;;;;4200430;28;20770;-57
2024/02/02 03:15:52;;;;;;;56.95;53.58;;;;;;;;;;4200587;28;20043;-56
2024/02/02 03:17:54;;;;;;;56.65;53.10;;;;;;;;;;4200227;28;20040;-57
2024/02/02 03:19:56;;;;;;;53.05;49.83;;;;;;;;;;4203617;28;20071;-56
2024/02/02 03:21:58;;;;;;;54.67;51.00;;;;;;;;;;4217132;28;20044;-57
2024/02/02 03:23:59;;;;;;;51.63;48.73;;;;;;;;;;4216256;28;20040;-56
2024/02/02 03:26:01;;;;;;;53.83;50.57;;;;;;;;;;4217291;28;20044;-57
2024/02/02 03:28:03;;;;;;;52.13;49.10;;;;;;;;;;4216783;28;20097;-56
2024/02/02 03:30:07;;;;;;;52.03;49.13;;;;;;;;;;4212724;28;20056;-58
2024/02/02 03:32:09;;;;;;;51.25;48.28;;;;;;;;;;4200032;28;20487;-58
2024/02/02 03:34:10;;;;;;;50.80;48.10;;;;;;;;;;4199995;28;20505;-58
2024/02/02 03:36:12;;;;;;;50.53;47.42;;;;;;;;;;4200051;28;20045;-58
2024/02/02 03:38:14;;;;;;;53.67;50.67;;;;;;;;;;4199899;28;20056;-58
2024/02/02 03:40:15;;;;;;;52.23;49.30;;;;;;;;;;4199728;28;20044;-58
2024/02/02 03:42:19;;;;;;;53.70;50.55;;;;;;;;;;4202682;28;20294;-58
2024/02/02 03:44:21;;;;;;;52.08;48.80;;;;;;;;;;4216523;28;20052;-58
2024/02/02 03:46:22;;;;;;;57.42;53.55;;;;;;;;;;4216479;28;20109;-58
2024/02/02 03:48:24;;;;;;;59.20;54.85;;;;;;;;;;4216476;28;20040;-57
2024/02/02 03:50:26;;;;;;;60.20;54.77;;;;;;;;;;4216176;28;20058;-58
2024/02/02 03:52:27;;;;;;;54.53;50.47;;;;;;;;;;4209874;28;20029;-58
2024/02/02 03:54:29;;;;;;;55.88;52.28;;;;;;;;;;4199751;28;20064;-58
2024/02/02 03:56:31;;;;;;;55.20;50.97;;;;;;;;;;4199766;28;20412;-58
2024/02/02 03:58:33;;;;;;;50.50;47.57;;;;;;;;;;4213395;28;20127;-58
2024/02/02 04:00:34;;;;;;;55.60;51.77;;;;;;;;;;4216385;28;20052;-57
2024/02/02 04:02:36;;;;;;;55.73;51.87;;;;;;;;;;4216111;28;20462;-58
2024/02/02 04:04:38;;;;;;;56.35;52.72;;;;;;;;;;4214891;28;20048;-58
2024/02/02 04:06:40;;;;;;;55.40;52.13;;;;;;;;;;4216218;28;20044;-58
2024/02/02 04:08:41;;;;;;;53.30;49.73;;;;;;;;;;4216313;28;20040;-58
2024/02/02 04:10:44;;;;;;;56.03;52.47;;;;;;;;;;4216383;28;20278;-58
2024/02/02 04:12:46;;;;;;;61.03;56.40;;;;;;;;;;4216387;28;20043;-58
2024/02/02 04:14:48;;;;;;;59.63;55.67;;;;;;;;;;4216294;28;20044;-58
2024/02/02 04:16:49;;;;;;;57.50;53.58;;;;;;;;;;4214619;28;20055;-58
2024/02/02 04:18:51;;;;;;;61.20;56.80;;;;;;;;;;4215180;28;20602;-58
2024/02/02 04:20:53;;;;;;;60.78;56.25;;;;;;;;;;4216279;28;20055;-58
2024/02/02 04:22:55;;;;;;;59.50;55.10;;;;;;;;;;4216042;28;20047;-56
2024/02/02 04:24:57;;;;;;;56.45;52.53;;;;;;;;;;4216042;28;20119;-58
2024/02/02 04:26:58;;;;;;;61.05;56.45;;;;;;;;;;4206448;28;20388;-58
2024/02/02 04:29:00;;;;;;;60.87;56.77;;;;;;;;;;4199344;28;20373;-58
2024/02/02 04:31:02;;;;;;;51.60;48.90;;;;;;;;;;4199187;28;20353;-58
2024/02/02 04:33:04;;;;;;;52.08;48.75;;;;;;;;;;4199142;28;20044;-57
2024/02/02 04:35:06;;;;;;;54.92;51.67;;;;;;;;;;4180607;28;20045;-57
2024/02/02 04:37:07;;;;;;;57.90;54.30;;;;;;;;;;4199520;28;20046;-58
2024/02/02 04:39:09;;;;;;;57.72;54.10;;;;;;;;;;4205595;28;20063;-58
2024/02/02 04:41:11;;;;;;;54.67;51.27;;;;;;;;;;4215751;28;20458;-58
2024/02/02 04:43:13;;;;;;;53.05;50.08;;;;;;;;;;4215652;28;20661;-57
2024/02/02 04:45:14;;;;;;;54.80;51.63;;;;;;;;;;4215427;28;20602;-58
2024/02/02 04:47:16;;;;;;;48.40;44.90;;;;;;;;;;4215893;28;20355;-58
2024/02/02 04:49:17;;;;;;;51.50;47.67;;;;;;;;;;4215480;28;20036;-57
2024/02/02 04:51:19;;;;;;;52.17;48.88;;;;;;;;;;4215491;28;20040;-58
2024/02/02 04:53:21;;;;;;;48.53;45.07;;;;;;;;;;4201424;28;20630;-57
2024/02/02 04:55:23;;;;;;;48.60;46.08;;;;;;;;;;4198786;28;20037;-58
2024/02/02 04:57:24;;;;;;;49.00;46.55;;;;;;;;;;4202788;28;20033;-58
2024/02/02 04:59:26;;;;;;;48.37;45.87;;;;;;;;;;4215424;28;20504;-58
2024/02/02 05:01:28;;;;;;;55.03;51.90;;;;;;;;;;4211068;28;20029;-58
2024/02/02 05:03:31;;;;;;;53.90;49.40;;;;;;;;;;4198683;28;20068;-58
2024/02/02 05:05:34;;;;;;;52.05;49.33;;;;;;;;;;4198592;28;20462;-58
2024/02/02 05:07:36;;;;;;;53.42;49.72;;;;;;;;;;4197152;28;20059;-58
2024/02/02 05:09:37;;;;;;;51.30;47.60;;;;;;;;;;4211985;28;20079;-58
2024/02/02 05:11:39;;;;;;;52.83;49.33;;;;;;;;;;4213439;28;20032;-57
2024/02/02 05:13:41;;;;;;;52.42;49.10;;;;;;;;;;4210691;28;20038;-57
2024/02/02 05:15:43;;;;;;;49.80;46.80;;;;;;;;;;4213545;28;20047;-57
2024/02/02 05:17:45;;;;;;;46.20;43.77;;;;;;;;;;4209269;28;20041;-58
2024/02/02 05:19:49;;;;;;;48.63;46.30;;;;;;;;;;4198372;28;20679;-57
2024/02/02 05:21:51;;;;;;;54.80;50.80;;;;;;;;;;4198572;28;20119;-58
2024/02/02 05:23:53;;;;;;;56.40;51.65;;;;;;;;;;4198153;28;20040;-58
2024/02/02 05:26:02;;;;;;;53.22;49.88;;;;;;;;;;4198497;28;20043;-58
2024/02/02 05:28:04;;;;;;;54.53;50.85;;;;;;;;;;4198271;28;20047;-58
2024/02/02 05:30:06;;;;;;;63.40;59.00;;;;;;;;;;4197663;28;20120;-58
2024/02/02 05:32:08;;;;;;;56.15;52.20;;;;;;;;;;4203781;28;20290;-57
2024/02/02 05:34:09;;;;;;;60.53;56.35;;;;;;;;;;4201194;28;20060;-58
2024/02/02 05:36:11;;;;;;;55.90;52.80;;;;;;;;;;4212894;28;20561;-56
2024/02/02 05:38:13;;;;;;;56.97;53.07;;;;;;;;;;4214747;28;20046;-57
2024/02/02 05:40:15;;;;;;;57.67;54.03;;;;;;;;;;4214540;28;20097;-58
2024/02/02 05:42:18;;;;;;;56.03;52.85;;;;;;;;;;4211961;28;20044;-58
2024/02/02 05:44:20;;;;;;;54.83;51.05;;;;;;;;;;4214988;28;20051;-58
2024/02/02 05:46:21;;;;;;;57.07;53.80;;;;;;;;;;4214815;28;20062;-57
2024/02/02 05:48:23;;;;;;;51.13;48.28;;;;;;;;;;4204375;28;20090;-57
2024/02/02 05:50:25;;;;;;;49.83;47.20;;;;;;;;;;4197369;28;20041;-56
2024/02/02 05:52:26;;;;;;;53.70;50.40;;;;;;;;;;4204147;28;20036;-57
2024/02/02 05:54:28;;;;;;;52.47;49.08;;;;;;;;;;4215082;28;20040;-56
2024/02/02 05:56:30;;;;;;;50.50;47.42;;;;;;;;;;4208428;28;20094;-57
2024/02/02 05:58:32;;;;;;;54.15;51.15;;;;;;;;;;4214164;28;20044;-56
2024/02/02 06:00:33;;;;;;;52.65;49.80;;;;;;;;;;4214443;28;20132;-57
2024/02/02 06:02:35;;;;;;;53.00;50.08;;;;;;;;;;4203918;28;20041;-56
2024/02/02 06:04:37;;;;;;;53.40;50.28;;;;;;;;;;4206049;28;20113;-56
2024/02/02 06:06:38;;;;;;;53.20;50.07;;;;;;;;;;4214288;28;20108;-56
2024/02/02 06:08:40;;;;;;;54.60;51.77;;;;;;;;;;4213941;28;20036;-57
2024/02/02 06:10:42;;;;;;;54.53;51.10;;;;;;;;;;4214190;28;20043;-57
2024/02/02 06:12:44;;;;;;;58.65;54.97;;;;;;;;;;4214285;28;20450;-57
2024/02/02 06:14:46;;;;;;;54.78;51.15;;;;;;;;;;4213711;28;20040;-56
2024/02/02 06:16:48;;;;;;;57.90;53.72;;;;;;;;;;4212721;28;20068;-57
2024/02/02 06:18:49;;;;;;;55.22;51.70;;;;;;;;;;4214208;28;20028;-57
2024/02/02 06:20:51;;;;;;;50.22;46.97;;;;;;;;;;4212955;28;20518;-60
2024/02/02 06:22:53;;;;;;;53.72;50.65;;;;;;;;;;4214159;28;20055;-61
2024/02/02 06:24:55;;;;;;;52.77;49.10;;;;;;;;;;4214368;28;20047;-60
2024/02/02 06:26:57;;;;;;;52.58;48.83;;;;;;;;;;4214282;28;20044;-60
2024/02/02 06:28:59;;;;;;;53.65;49.97;;;;;;;;;;4214260;28;20040;-61
2024/02/02 06:31:00;;;;;;;71.57;65.47;;;;;;;;;;4210234;28;20048;-60
2024/02/02 06:33:02;;;;;;;76.55;69.70;;;;;;;;;;4213587;28;20069;-60
2024/02/02 06:35:04;;;;;;;71.40;65.45;;;;;;;;;;4214018;28;20078;-60
2024/02/02 06:37:08;;;;;;;57.53;53.53;;;;;;;;;;4207625;28;20114;-60
2024/02/02 06:39:10;;;;;;;61.47;56.95;;;;;;;;;;4210996;28;20059;-61
2024/02/02 06:41:12;;;;;;;64.20;59.50;;;;;;;;;;4213788;28;20047;-60
2024/02/02 06:43:13;;;;;;;56.53;52.80;;;;;;;;;;4213404;28;20047;-61
2024/02/02 06:45:15;;;;;;;60.97;56.97;;;;;;;;;;4212551;28;20052;-60
2024/02/02 06:47:17;;;;;;;55.75;52.05;;;;;;;;;;4212393;28;20143;-60
2024/02/02 06:49:19;;;;;;;58.53;54.75;;;;;;;;;;4212070;28;20043;-61
2024/02/02 06:51:21;;;;;;;63.08;59.03;;;;;;;;;;4212262;28;20036;-60
2024/02/02 06:53:22;;;;;;;64.30;59.65;;;;;;;;;;4212378;28;20040;-61
2024/02/02 06:55:24;;;;;;;60.78;56.28;;;;;;;;;;4212414;28;20109;-60
2024/02/02 06:57:29;;;;;;;63.58;58.83;;;;;;;;;;4213774;28;20552;-64
2024/02/02 06:59:31;;;;;;;59.35;55.33;;;;;;;;;;4213787;28;20067;-63
2024/02/02 07:01:33;;;;;;;62.23;57.93;;;;;;;;;;4213896;28;20423;-64
2024/02/02 07:03:35;;;;;;;63.60;59.10;;;;;;;;;;4213821;28;20036;-63
2024/02/02 07:05:37;;;;;;;54.58;51.45;;;;;;;;;;4213595;28;20040;-63
2024/02/02 07:07:39;;;;;;;50.15;47.35;;;;;;;;;;4213881;28;20036;-63
2024/02/02 07:09:41;;;;;;;;;;;;;;;;;;4214229;28;20033;-63
2024/02/02 07:11:49;;;;;;;54.90;51.40;;;;;;;;;;4213660;28;19950;-63
2024/02/02 07:13:52;;;;;;;52.28;49.38;;;;;;;;;;4213699;28;20514;-63
2024/02/02 07:15:55;;;;;;;65.55;60.65;;;;;;;;;;4213910;28;20040;-64
2024/02/02 07:17:59;;;;;;;102.97;92.32;;;;;;;;;;4213852;28;20036;-64
2024/02/02 07:20:04;;;;;;;101.57;91.45;;;;;;;;;;4199590;28;20056;-64
2024/02/02 07:22:20;;;;;;;90.30;82.03;;;;;;;;;;4196850;28;20072;-63
2024/02/02 07:24:21;;;;;;;83.22;75.90;;;;;;;;;;4197085;28;20045;-63
2024/02/02 07:26:23;;;;;;;73.55;67.53;;;;;;;;;;4196692;28;20047;-63
2024/02/02 07:28:27;;;;;;;62.42;57.95;;;;;;;;;;4209208;28;20495;-63
2024/02/02 07:30:44;;;;;;;57.00;53.53;;;;;;;;;;4212156;28;20051;-63
2024/02/02 07:32:46;;;;;;;54.17;50.95;;;;;;;;;;4213446;28;20040;-63
2024/02/02 07:34:50;;;;;;;52.75;49.67;;;;;;;;;;4213728;28;20123;-64
2024/02/02 07:36:54;;;;;;;47.35;45.33;;;;;;;;;;4213433;28;20047;-63
2024/02/02 07:38:56;;;;;;;49.42;47.20;;;;;;;;;;4213317;28;20475;-63
2024/02/02 07:41:03;;;;;;;45.47;43.47;;;;;;;;;;4213408;28;20055;-63
2024/02/02 07:43:04;;;;;;;48.78;46.58;;;;;;;;;;4213350;28;20130;-63
2024/02/02 07:45:06;;;;;;;47.35;45.40;;;;;;;;;;4213698;28;20123;-64
2024/02/02 07:47:08;;;;;;;45.83;43.30;;;;;;;;;;4213318;28;20072;-63
2024/02/02 07:49:12;;;;;;;45.13;43.42;;;;;;;;;;4213163;28;20321;-64
2024/02/02 07:51:15;;;;;;;42.63;41.13;;;;;;;;;;4213366;28;20055;-64
2024/02/02 07:53:17;;;;;;;43.40;41.90;;;;;;;;;;4199906;28;20376;-63
2024/02/02 07:55:18;;;;;;;46.25;44.20;;;;;;;;;;4199287;28;20036;-64
2024/02/02 07:57:20;;;;;;;41.97;40.33;;;;;;;;;;4203090;28;20040;-63
2024/02/02 07:59:22;;;;;;;42.25;40.40;;;;;;;;;;4216176;28;20093;-64
2024/02/02 08:01:23;;;;;;;41.87;39.70;;;;;;;;;;4216213;28;20067;-63
2024/02/02 08:03:25;;;;;;;51.63;48.40;;;;;;;;;;4215040;28;20139;-64
2024/02/02 08:05:27;;;;;;;48.33;45.67;;;;;;;;;;4216339;28;20328;-64
2024/02/02 08:07:29;;;;;;;45.40;43.40;;;;;;;;;;4215576;28;20044;-64
2024/02/02 08:09:30;;;;;;;40.65;39.10;;;;;;;;;;4214948;28;20062;-64
2024/02/02 08:11:35;;;;;;;47.60;45.20;;;;;;;;;;4216358;28;20032;-64
2024/02/02 08:13:37;;;;;;;44.55;42.50;;;;;;;;;;4216156;28;20040;-64
2024/02/02 08:15:39;;;;;;;44.65;41.97;;;;;;;;;;4216119;28;20040;-64
2024/02/02 08:17:41;;;;;;;59.80;53.47;;;;;;;;;;4216143;28;20067;-64
2024/02/02 08:19:42;;;;;;;58.57;53.50;;;;;;;;;;4204722;28;20076;-63
2024/02/02 08:21:47;;;;;;;48.70;45.33;;;;;;;;;;4199398;28;20394;-64
2024/02/02 08:23:48;;;;;;;50.55;47.38;;;;;;;;;;4204824;28;20044;-64
2024/02/02 08:25:50;;;;;;;48.10;43.60;;;;;;;;;;4214965;28;20411;-64
2024/02/02 08:27:52;;;;;;;42.33;40.40;;;;;;;;;;4215869;28;20051;-64
2024/02/02 08:29:53;;;;;;;39.97;37.85;;;;;;;;;;4215917;28;20101;-64
2024/02/02 08:31:55;;;;;;;37.60;35.88;;;;;;;;;;4215969;28;20036;-64
2024/02/02 08:33:57;;;;;;;38.57;37.03;;;;;;;;;;4215784;28;20122;-64
2024/02/02 08:35:58;;;;;;;37.97;35.83;;;;;;;;;;4215802;28;20282;-64
2024/02/02 08:38:02;;;;;;;42.37;40.23;;;;;;;;;;4214682;28;20122;-64
2024/02/02 08:40:13;;;;;;;39.42;37.72;;;;;;;;;;4215760;28;20055;-64
2024/02/02 08:42:20;;;;;;;42.30;40.30;;;;;;;;;;4215605;28;20047;-64
2024/02/02 08:44:23;;;;;;;50.03;46.70;;;;;;;;;;4215536;28;20472;-64
2024/02/02 08:46:24;;;;;;;53.40;49.47;;;;;;;;;;4215714;28;20103;-64
2024/02/02 08:48:26;;;;;;;58.30;54.00;;;;;;;;;;4215664;28;20040;-64
2024/02/02 08:50:28;;;;;;;62.70;57.50;;;;;;;;;;4215195;28;20039;-64
2024/02/02 08:52:33;;;;;;;62.58;57.40;;;;;;;;;;4215448;28;20094;-64
2024/02/02 08:54:36;;;;;;;57.00;52.45;;;;;;;;;;4215439;28;20055;-64
2024/02/02 08:56:38;;;;;;;56.58;52.05;;;;;;;;;;4215450;28;20082;-64
2024/02/02 08:58:41;;;;;;;62.40;56.83;;;;;;;;;;4214980;28;20062;-64
2024/02/02 09:00:42;;;;;;;;;;;;;;;;;;4214930;28;20048;-64
2024/02/02 09:02:52;;;;;;;55.83;51.35;;;;;;;;;;4215248;28;19924;-64
2024/02/02 09:05:07;;;;;;;52.65;48.95;;;;;;;;;;4215077;28;20040;-64
2024/02/02 09:07:10;;;;;;;56.75;52.17;;;;;;;;;;4215231;28;20407;-64
2024/02/02 09:09:14;;;;;;;53.33;48.97;;;;;;;;;;4215153;28;20040;-64
2024/02/02 09:11:17;;;;;;;52.80;49.42;;;;;;;;;;4215133;28;20036;-64
2024/02/02 09:13:20;;;;;;;48.83;45.55;;;;;;;;;;4215130;28;20123;-64
2024/02/02 09:15:21;;;;;;;48.72;45.63;;;;;;;;;;4208789;28;20025;-64
2024/02/02 09:17:24;;;;;;;49.67;46.33;;;;;;;;;;4198821;28;20041;-65
2024/02/02 09:19:45;;;;;;;47.50;44.45;;;;;;;;;;4198526;28;20336;-64
2024/02/02 09:21:47;;;;;;;47.58;44.20;;;;;;;;;;4214995;28;20482;-64
2024/02/02 09:23:50;;;;;;;48.37;45.00;;;;;;;;;;4215042;28;20101;-64
2024/02/02 09:25:51;;;;;;;46.50;43.55;;;;;;;;;;4215009;28;20036;-64
2024/02/02 09:27:56;;;;;;;45.70;42.87;;;;;;;;;;4215185;28;20075;-64
2024/02/02 09:29:58;;;;;;;43.80;41.10;;;;;;;;;;4214858;28;20063;-64
2024/02/02 09:32:00;;;;;;;45.03;41.70;;;;;;;;;;4214924;28;20036;-64
2024/02/02 09:34:04;;;;;;;45.83;42.65;;;;;;;;;;4214901;28;20587;-64
2024/02/02 09:36:06;;;;;;;48.90;45.78;;;;;;;;;;4214708;28;20036;-64
2024/02/02 09:38:08;;;;;;;;;;;;;;;;;;4215173;28;20043;-65
2024/02/02 09:40:30;;;;;;;43.65;40.70;;;;;;;;;;4214628;28;19923;-64
2024/02/02 09:42:35;;;;;;;42.83;40.10;;;;;;;;;;4214041;28;20060;-64
2024/02/02 09:44:36;;;;;;;41.90;39.20;;;;;;;;;;4214938;28;20093;-65
2024/02/02 09:46:41;;;;;;;43.17;40.00;;;;;;;;;;4214738;28;20040;-65
2024/02/02 09:48:51;;;;;;;47.92;44.88;;;;;;;;;;4214533;28;20392;-65
2024/02/02 09:50:55;;;;;;;;;;;;;;;;;;4214855;28;20040;-65
2024/02/02 09:53:10;;;;;;;47.55;44.13;;;;;;;;;;4203678;28;19970;-65
2024/02/02 09:55:32;;;;;;;48.35;44.70;;;;;;;;;;4197805;28;20037;-66
2024/02/02 09:57:56;;;;;;;49.25;44.42;;;;;;;;;;4203370;28;20575;-67
2024/02/02 10:00:02;;;;;;;40.78;37.65;;;;;;;;;;4214694;28;20097;-66
2024/02/02 10:02:24;;;;;;;44.80;41.70;;;;;;;;;;4205027;28;20056;-66
2024/02/02 10:04:46;;;;;;;45.47;41.90;;;;;;;;;;4196937;28;20052;-66
2024/02/02 10:06:48;;;;;;;43.08;40.15;;;;;;;;;;4197414;28;20097;-66
2024/02/02 10:09:01;;;;;;;45.17;40.70;;;;;;;;;;4197389;28;20036;-66
2024/02/02 10:11:03;;;;;;;41.97;38.20;;;;;;;;;;4197603;28;20043;-66
2024/02/02 10:13:15;;;;;;;44.20;41.28;;;;;;;;;;4197477;28;20067;-66
2024/02/02 10:15:29;;;;;;;37.53;35.72;;;;;;;;;;4198059;28;20033;-65
2024/02/02 10:17:37;;;;;;;38.88;36.55;;;;;;;;;;4211619;28;20063;-65
2024/02/02 10:19:38;;;;;;;34.55;32.75;;;;;;;;;;4214197;28;20040;-65
2024/02/02 10:21:49;;;;;;;35.70;34.00;;;;;;;;;;4213147;28;20054;-65
2024/02/02 10:24:01;;;;;;;34.28;32.75;;;;;;;;;;4214305;28;20102;-65
2024/02/02 10:26:35;;;;;;;38.22;35.55;;;;;;;;;;4214334;28;20036;-65
2024/02/02 10:28:54;;;;;;;38.60;35.85;;;;;;;;;;4214376;28;20055;-65
2024/02/02 10:30:59;;;;;;;36.85;34.70;;;;;;;;;;4214035;28;20111;-65
2024/02/02 10:33:12;;;;;;;27.50;26.42;;;;;;;;;;4213886;28;20051;-65
2024/02/02 10:35:29;;;;;;;32.47;30.83;;;;;;;;;;4214082;28;20048;-65
2024/02/02 10:37:37;;;;;;;32.38;30.63;;;;;;;;;;4214028;28;20395;-65
2024/02/02 10:39:43;;;;;;;24.77;23.42;;;;;;;;;;4213742;28;20044;-65
2024/02/02 10:42:04;;;;;;;24.38;23.10;;;;;;;;;;4212753;28;20547;-65
2024/02/02 10:44:17;;;;;;;18.58;18.05;;;;;;;;;;4213665;28;20040;-65
2024/02/02 10:46:21;;;;;;;18.85;18.38;;;;;;;;;;4211399;28;20093;-65
2024/02/02 10:48:34;;;;;;;18.13;17.52;;;;;;;;;;4210961;28;20044;-65
2024/02/02 10:50:42;;;;;;;17.73;17.33;;;;;;;;;;4209352;28;20487;-65
2024/02/02 10:53:03;;;;;;;19.50;18.20;;;;;;;;;;4212630;28;20446;-65
2024/02/02 10:55:13;;;;;;;16.33;15.63;;;;;;;;;;4212788;28;20055;-65
2024/02/02 10:57:31;;;;;;;14.73;13.95;;;;;;;;;;4213587;28;20028;-65
2024/02/02 10:59:35;;;;;;;14.75;13.65;;;;;;;;;;4211920;28;20089;-65
2024/02/02 11:01:37;;;;;;;11.88;11.23;;;;;;;;;;4212458;28;20066;-64
2024/02/02 11:03:42;;;;;;;12.40;12.00;;;;;;;;;;4210642;28;20448;-65
2024/02/02 11:05:55;;;;;;;17.05;15.48;;;;;;;;;;4213430;28;20457;-64
2024/02/02 11:08:01;;;;;;;10.95;10.52;;;;;;;;;;4209311;28;20483;-65
2024/02/02 11:10:05;;;;;;;8.00;7.85;;;;;;;;;;4211840;28;20625;-64
2024/02/02 11:12:10;;;;;;;7.53;7.43;;;;;;;;;;4211798;28;20043;-64
2024/02/02 11:14:12;;;;;;;5.78;5.57;;;;;;;;;;4210238;28;20040;-64
2024/02/02 11:16:19;;;;;;;4.32;4.22;;;;;;;;;;4213575;28;20447;-65
2024/02/02 11:18:44;;;;;;;5.50;5.30;;;;;;;;;;4212846;28;20082;-65
2024/02/02 11:20:55;;;;;;;4.88;4.72;;;;;;;;;;4209340;28;20047;-64
2024/02/02 11:23:05;;;;;;;4.75;4.40;;;;;;;;;;4211633;28;20045;-64
2024/02/02 11:25:11;;;;;;;4.65;4.55;;;;;;;;;;4210154;28;20578;-64
2024/02/02 11:27:29;;;;;;;4.88;4.78;;;;;;;;;;4213207;28;20060;-64
2024/02/02 11:29:40;;;;;;;4.40;4.30;;;;;;;;;;4215071;28;20468;-65
2024/02/02 11:32:14;;;;;;;6.30;5.95;;;;;;;;;;4216175;28;20028;-65
2024/02/02 11:34:34;;;;;;;5.03;4.93;;;;;;;;;;4213065;28;20539;-65
2024/02/02 11:36:42;;;;;;;4.75;4.65;;;;;;;;;;4215118;28;20082;-65
2024/02/02 11:39:02;;;;;;;6.40;5.90;;;;;;;;;;4212862;28;20040;-62
2024/02/02 11:41:06;;;;;;;6.03;5.47;;;;;;;;;;4212818;28;20036;-61
2024/02/02 11:43:09;;;;;;;4.72;4.57;;;;;;;;;;4215901;28;20036;-61
2024/02/02 11:45:15;;;;;;;5.50;5.10;;;;;;;;;;4215509;28;20443;-61
2024/02/02 11:47:18;;;;;;;7.22;6.20;;;;;;;;;;4209082;28;20043;-61
2024/02/02 11:49:23;;;;;;;4.07;3.70;;;;;;;;;;4212703;28;20131;-62
2024/02/02 11:51:25;;;;;;;3.58;3.47;;;;;;;;;;4215493;28;20051;-62
2024/02/02 11:53:35;;;;;;;4.00;3.85;;;;;;;;;;4215691;28;20032;-62
2024/02/02 11:55:40;;;;;;;3.15;2.80;;;;;;;;;;4214870;28;20040;-62
2024/02/02 11:57:49;;;;;;;3.03;2.72;;;;;;;;;;4215378;28;20059;-62
2024/02/02 11:59:51;;;;;;;3.15;2.00;;;;;;;;;;4214319;28;20044;-62
2024/02/02 12:01:55;;;;;;;2.03;1.92;;;;;;;;;;4215239;28;20082;-61
2024/02/02 12:04:04;;;;;;;1.80;1.80;;;;;;;;;;4210447;28;20044;-61